KGWO/GWO METAR and TAF weather

Enter ICAO airport designator
Station Type Date Time Source
KGWO METAR 2023/02/04 02:53 UTC NOAA

KGWO 040253Z AUTO 35003KT 10SM CLR 01/M01 A3054 RMK AO2 SLP344 T00111011 51003


Station Type Date Time Source
KGWO Decoded METAR 2023/02/04 02:53 UTC NOAA

GREENWOOD-LEFLORE AIRPORT, MS, United States (KGWO) 33-30N 090-05W 44M
Feb 03, 2023 - 09:53 PM EST / 2023.02.04 0253 UTC
Wind: from the N (350 degrees) at 3 MPH (3 KT):0
Visibility: 10 mile(s):0
Sky conditions: clear
Temperature: 34.0 F (1.1 C)
Dew Point: 30.0 F (-1.1 C)
Relative Humidity: 85%
Pressure (altimeter): 30.54 in. Hg (1034 hPa)
Pressure tendency: 0.01 inches (0.3 hPa) higher than three hours ago
ob: KGWO 040253Z AUTO 35003KT 10SM CLR 01/M01 A3054 RMK AO2 SLP344 T00111011 51003
cycle: 3

Station Type Date Time Source
KGWO TAF 2023/02/03 20:28 UTC NOAA

TAF
AMD KGWO 032026Z 0320/0418 36006KT P6SM SKC

Example: see airport list